Falls Church, VA (22041)

12:18 PM EST on January 17, 2017 (GMT -0500)
Seminary Hills | | Change Station
Active Advisory: Small Craft Advisory

Elev 266 ft 38.84 °N, 77.12 °W | Updated 1 second ago

Overcast
Overcast
45.7 °F
Feels Like 46 °F
N
2.0
Wind Variable Wind from SSE

Today
High -- | Low -- °F
--% Chance of Precip.
Yesterday
High -- | Low -- °F
Precip. -- in
Pressure 30.11 in
Visibility 6.0 miles
Clouds Overcast 800 ft
Windchill 46 °F
Dew Point 42 °F
Humidity 88%
Rainfall 0.11 in
Snow Depth Not available.
7:24 AM 5:13 PM
Waning Gibbous, 71% visible
METAR KDCA 171652Z 18008KT 6SM BR OVC008 08/07 A3011 RMK AO2 RAE1559 SLP194 P0000 T00830072
Pressure 30.11 in
Visibility 6.0 miles
Clouds Overcast 800 ft
Windchill 46 °F
Dew Point 42 °F
Humidity 88%
Rainfall 0.11 in
Snow Depth Not available.
7:24 AM 5:13 PM
Waning Gibbous, 71% visible
METAR KDCA 171652Z 18008KT 6SM BR OVC008 08/07 A3011 RMK AO2 RAE1559 SLP194 P0000 T00830072

Get Your Daily Forecast Email!

Thanks for signing up!

Be on the lookout for a verification email in your inbox.

You'll start receiving the daily forecast at 8 AM.

×

10-Day Weather Forecast

Almanac

Astronomy

Jan. 17, 2017 Rise Set
Actual Time
Civil Twilight
Nautical Twilight
Astronomical Twilight
Moon
Length of Visible Light
Length of Day
Tomorrow will be .
, % of the Moon is Illuminated

Today's Extremes

State Highs State Lows

Community

WunderPhotos

Upload Photos

1,962,540 photos uploaded!

WunderBlog® & News

Nearby

Air Quality

  Air Quality AQ Index Pollutant
Not available.

Snow Depth

Station Depth Elevation

Earthquake Activity

City Distance Mag. Time & Date
Minimum magnitude displayed is 2.5.

Coastal Water Temperatures

Place Temperature

Stations

Nearby Weather Stations

Station Location Temp. Windchill Dew Point Humidity Wind Precip. Elev Updated Type
                   

Watches & Warnings

Small Craft Advisory
Issued: 10:30 AM EST Jan. 17, 2017 – National Weather Service

... Small Craft Advisory remains in effect from 7 am to 6 PM EST
Wednesday...

* winds... 18 to 33 knots within the Small Craft Advisory.

Precautionary/preparedness actions...

A Small Craft Advisory means winds of 18 to 33 knots are imminent
or occurring. Boaters operating smaller vessels should avoid
navigating in these conditions.